createdAt,value
2022-09-21T00:01:32.074Z,0.90
2022-09-21T00:04:01.243Z,0.90
2022-09-21T00:06:29.907Z,0.80
2022-09-21T00:08:57.201Z,0.80
2022-09-21T00:11:28.594Z,0.80
2022-09-21T00:13:59.762Z,0.80
2022-09-21T00:16:29.677Z,0.90
2022-09-21T00:18:59.009Z,0.80
2022-09-21T00:21:26.046Z,0.80
2022-09-21T00:23:55.990Z,0.80
2022-09-21T00:26:27.709Z,0.80
2022-09-21T00:29:04.451Z,0.80
2022-09-21T00:31:34.430Z,0.80
2022-09-21T00:34:03.469Z,0.70
2022-09-21T00:36:34.023Z,0.70
2022-09-21T00:39:02.229Z,0.70
2022-09-21T00:41:32.117Z,0.60
2022-09-21T00:44:33.874Z,0.60
2022-09-21T00:47:22.965Z,0.60
2022-09-21T00:49:54.794Z,0.70
2022-09-21T00:52:24.778Z,0.70
2022-09-21T00:55:03.415Z,0.70
2022-09-21T00:57:31.885Z,0.60
2022-09-21T01:00:05.229Z,0.60
2022-09-21T01:02:32.093Z,0.60
2022-09-21T01:04:59.274Z,0.60
2022-09-21T01:07:33.517Z,0.50
2022-09-21T01:10:05.288Z,0.50
2022-09-21T01:12:40.993Z,0.50
2022-09-21T01:15:25.909Z,0.50
2022-09-21T01:18:15.271Z,0.50
2022-09-21T01:21:00.455Z,0.40
2022-09-21T01:24:00.558Z,0.40
2022-09-21T01:26:38.214Z,0.40
2022-09-21T01:29:26.830Z,0.40
2022-09-21T01:32:27.257Z,0.40
2022-09-21T01:35:17.675Z,0.40
2022-09-21T01:37:59.361Z,0.40
2022-09-21T01:40:36.133Z,0.30
2022-09-21T01:43:09.680Z,0.30
2022-09-21T01:45:44.561Z,0.30
2022-09-21T01:48:16.098Z,0.30
2022-09-21T01:50:49.673Z,0.30
2022-09-21T01:53:36.315Z,0.30
2022-09-21T01:56:30.879Z,0.20
2022-09-21T01:59:16.261Z,0.20
2022-09-21T02:01:52.377Z,0.20
2022-09-21T02:04:19.171Z,0.20
2022-09-21T02:06:50.604Z,0.20
2022-09-21T02:09:17.855Z,0.30
2022-09-21T02:11:45.301Z,0.20
2022-09-21T02:14:20.633Z,0.20
2022-09-21T02:17:15.122Z,0.20
2022-09-21T02:19:54.582Z,0.10
2022-09-21T02:23:05.006Z,0.10
2022-09-21T02:25:57.833Z,0.10
2022-09-21T02:29:11.685Z,0.10
2022-09-21T02:31:44.092Z,0.10
2022-09-21T02:34:34.637Z,0.10
2022-09-21T02:37:22.244Z,0.10
2022-09-21T02:40:22.974Z,0.10
2022-09-21T02:42:53.736Z,0.10
2022-09-21T02:45:24.675Z,0.10
2022-09-21T02:47:59.470Z,0.10
2022-09-21T02:50:33.768Z,0.10
2022-09-21T02:53:06.190Z,0.10
2022-09-21T02:55:34.387Z,0.10
2022-09-21T02:58:06.327Z,0.10
2022-09-21T03:00:39.884Z,0.10
2022-09-21T03:03:27.267Z,0.10
2022-09-21T03:05:55.666Z,0.00
2022-09-21T03:08:23.082Z,0.00
2022-09-21T03:10:51.003Z,0.00
2022-09-21T03:13:18.975Z,0.00
2022-09-21T03:15:53.474Z,0.00
2022-09-21T03:18:20.169Z,0.00
2022-09-21T03:20:47.112Z,0.00
2022-09-21T03:23:14.143Z,0.00
2022-09-21T03:25:43.418Z,0.00
2022-09-21T03:28:14.800Z,0.00
2022-09-21T03:30:44.347Z,0.00
2022-09-21T03:33:12.872Z,0.00
2022-09-21T03:35:40.202Z,0.00
2022-09-21T03:38:07.102Z,0.00
2022-09-21T03:40:37.475Z,0.00
2022-09-21T03:43:07.321Z,0.00
2022-09-21T03:45:34.044Z,0.00
2022-09-21T03:48:13.414Z,0.00
2022-09-21T03:50:40.177Z,0.00
2022-09-21T03:53:13.569Z,-0.10
2022-09-21T03:55:40.597Z,-0.10
2022-09-21T03:58:07.934Z,-0.10
2022-09-21T04:00:37.702Z,-0.10
2022-09-21T04:05:47.671Z,-0.10
2022-09-21T04:08:20.649Z,-0.10
2022-09-21T04:10:47.581Z,-0.20
2022-09-21T04:13:24.489Z,-0.20
2022-09-21T04:15:54.210Z,-0.20
2022-09-21T04:18:20.951Z,-0.20
2022-09-21T04:20:47.660Z,-0.20
2022-09-21T04:23:14.582Z,-0.30
2022-09-21T04:25:41.905Z,-0.30
2022-09-21T04:28:08.714Z,-0.30
2022-09-21T04:30:37.985Z,-0.30
2022-09-21T04:33:04.859Z,-0.30
2022-09-21T04:35:33.696Z,-0.20
2022-09-21T04:38:02.985Z,-0.30
2022-09-21T04:40:32.487Z,-0.30
2022-09-21T04:42:59.414Z,-0.30
2022-09-21T04:45:26.214Z,-0.30
2022-09-21T04:47:52.944Z,-0.30
2022-09-21T04:50:22.856Z,-0.30
2022-09-21T04:52:49.572Z,-0.30
2022-09-21T04:55:16.922Z,-0.30
2022-09-21T04:57:47.010Z,-0.20
2022-09-21T05:00:14.132Z,-0.20
2022-09-21T05:02:40.819Z,-0.20
2022-09-21T05:05:08.107Z,-0.20
2022-09-21T05:07:34.820Z,-0.20
2022-09-21T05:10:07.673Z,-0.20
2022-09-21T05:12:39.686Z,-0.20
2022-09-21T05:15:08.740Z,-0.20
2022-09-21T05:17:35.705Z,-0.10
2022-09-21T05:20:02.566Z,-0.10
2022-09-21T05:22:29.343Z,-0.10
2022-09-21T05:24:56.105Z,-0.10
2022-09-21T05:27:25.115Z,0.00
2022-09-21T05:29:52.008Z,0.10
2022-09-21T05:32:41.654Z,0.10
2022-09-21T05:35:30.095Z,0.20
2022-09-21T05:38:20.094Z,0.30
2022-09-21T05:40:47.746Z,0.30
2022-09-21T05:43:17.011Z,0.40
2022-09-21T05:45:51.766Z,0.60
2022-09-21T05:48:42.158Z,0.70
2022-09-21T05:51:43.664Z,0.80
2022-09-21T05:54:21.510Z,0.90
2022-09-21T05:57:05.718Z,0.90
2022-09-21T05:59:57.693Z,1.00
2022-09-21T06:02:57.541Z,1.10
2022-09-21T06:05:30.631Z,1.10
2022-09-21T06:07:57.299Z,1.30
2022-09-21T06:10:33.848Z,1.40
2022-09-21T06:13:03.808Z,1.60
2022-09-21T06:15:30.934Z,1.70
2022-09-21T06:17:59.585Z,1.90
2022-09-21T06:20:26.263Z,2.00
2022-09-21T06:22:53.013Z,2.10
2022-09-21T06:25:20.524Z,2.30
2022-09-21T06:27:47.196Z,2.30
2022-09-21T06:30:14.020Z,2.40
2022-09-21T06:32:41.027Z,2.60
2022-09-21T06:35:08.203Z,2.70
2022-09-21T06:37:35.254Z,2.90
2022-09-21T06:40:02.274Z,3.00
2022-09-21T06:42:31.156Z,3.20
2022-09-21T06:44:57.892Z,3.30
2022-09-21T06:47:24.824Z,3.50
2022-09-21T06:49:54.132Z,3.70
2022-09-21T06:52:20.868Z,3.90
2022-09-21T06:54:50.160Z,4.20
2022-09-21T06:57:17.137Z,4.40
2022-09-21T06:59:44.000Z,4.70
2022-09-21T07:02:11.709Z,5.00
2022-09-21T07:04:38.578Z,5.20
2022-09-21T07:07:05.637Z,5.60
2022-09-21T07:12:19.357Z,6.00
2022-09-21T07:14:49.241Z,6.10
2022-09-21T07:17:18.680Z,6.30
2022-09-21T07:19:45.655Z,6.50
2022-09-21T07:22:14.495Z,6.70
2022-09-21T07:24:41.487Z,6.90
2022-09-21T07:27:11.184Z,7.10
2022-09-21T07:29:44.231Z,7.20
2022-09-21T07:32:13.431Z,7.40
2022-09-21T07:34:43.766Z,7.70
2022-09-21T07:37:10.526Z,7.90
2022-09-21T07:39:38.867Z,8.10
2022-09-21T07:42:09.597Z,8.30
2022-09-21T07:44:36.590Z,8.50
2022-09-21T07:47:03.513Z,8.60
2022-09-21T07:49:32.495Z,8.80
2022-09-21T07:52:06.424Z,9.00
2022-09-21T07:54:36.061Z,9.10
2022-09-21T07:57:21.244Z,9.20
2022-09-21T07:59:51.121Z,9.30
2022-09-21T08:02:17.876Z,9.40
2022-09-21T08:04:44.665Z,9.60
2022-09-21T08:07:11.434Z,9.70
2022-09-21T08:09:38.579Z,9.80
2022-09-21T08:12:05.341Z,10.00
2022-09-21T08:14:38.146Z,10.20
2022-09-21T08:19:45.728Z,10.40
2022-09-21T08:22:13.890Z,10.50
2022-09-21T08:24:43.477Z,10.60
2022-09-21T08:27:13.292Z,10.70
2022-09-21T08:29:42.737Z,10.80
2022-09-21T08:32:13.439Z,10.80
2022-09-21T08:34:49.888Z,11.00
2022-09-21T08:37:16.878Z,11.20
2022-09-21T08:39:43.530Z,11.50
2022-09-21T08:42:36.351Z,11.60
2022-09-21T08:45:10.129Z,11.70
2022-09-21T08:47:40.270Z,11.90
2022-09-21T08:50:35.817Z,12.20
2022-09-21T08:53:13.601Z,12.40
2022-09-21T08:55:40.396Z,12.50
2022-09-21T08:58:27.481Z,12.60
2022-09-21T09:01:25.266Z,12.40
2022-09-21T09:04:22.679Z,12.10
2022-09-21T09:07:24.959Z,12.00
2022-09-21T09:10:14.714Z,11.60
2022-09-21T09:12:51.002Z,11.60
2022-09-21T09:15:24.024Z,11.60
2022-09-21T09:18:01.930Z,11.50
2022-09-21T09:20:36.977Z,11.70
2022-09-21T09:23:20.078Z,12.00
2022-09-21T09:25:51.666Z,12.20
2022-09-21T09:28:53.238Z,12.60
2022-09-21T09:31:34.569Z,12.80
2022-09-21T09:34:10.584Z,12.90
2022-09-21T09:36:57.902Z,12.70
2022-09-21T09:39:26.911Z,12.50
2022-09-21T09:42:15.794Z,12.40
2022-09-21T09:45:10.604Z,12.40
2022-09-21T09:47:43.492Z,12.60
2022-09-21T09:50:30.063Z,13.00
2022-09-21T09:53:26.889Z,13.30
2022-09-21T09:55:55.722Z,13.50
2022-09-21T09:58:43.327Z,13.70
2022-09-21T10:01:30.166Z,14.00
2022-09-21T10:04:09.462Z,14.30
2022-09-21T10:06:37.086Z,14.60
2022-09-21T10:09:23.232Z,14.60
2022-09-21T10:11:50.216Z,14.90
2022-09-21T10:14:21.987Z,15.00
2022-09-21T10:16:56.628Z,15.20
2022-09-21T10:19:26.662Z,15.20
2022-09-21T10:21:59.260Z,15.20
2022-09-21T10:24:30.802Z,15.30
2022-09-21T10:27:06.289Z,15.30
2022-09-21T10:29:42.970Z,15.10
2022-09-21T10:32:14.583Z,14.70
2022-09-21T10:35:15.413Z,14.60
2022-09-21T10:38:00.844Z,14.70
2022-09-21T10:40:37.409Z,15.10
2022-09-21T10:43:04.514Z,15.00
2022-09-21T10:45:37.280Z,14.70
2022-09-21T10:48:20.942Z,14.50
2022-09-21T10:50:49.809Z,14.20
2022-09-21T10:53:36.696Z,14.40
2022-09-21T10:56:21.078Z,14.80
2022-09-21T10:59:13.599Z,15.20
2022-09-21T11:01:46.313Z,15.40
2022-09-21T11:04:41.174Z,15.10
2022-09-21T11:07:20.171Z,14.70
2022-09-21T11:10:16.245Z,14.30
2022-09-21T11:13:18.882Z,13.90
2022-09-21T11:16:15.766Z,13.80
2022-09-21T11:19:06.464Z,13.50
2022-09-21T11:21:48.607Z,13.30
2022-09-21T11:24:52.667Z,13.20
2022-09-21T11:27:22.364Z,13.10
2022-09-21T11:30:04.679Z,13.10
2022-09-21T11:32:53.205Z,13.20
2022-09-21T11:35:53.793Z,13.40
2022-09-21T11:38:41.232Z,14.00
2022-09-21T11:41:42.074Z,14.60
2022-09-21T11:44:40.187Z,15.00
2022-09-21T11:47:35.056Z,15.50
2022-09-21T11:50:30.738Z,15.70
2022-09-21T11:53:35.273Z,14.90
2022-09-21T11:56:16.689Z,14.40
2022-09-21T11:59:16.501Z,14.00
2022-09-21T12:01:51.284Z,13.70
2022-09-21T12:07:30.891Z,13.40
2022-09-21T12:10:27.777Z,13.40
2022-09-21T12:13:03.983Z,13.50
2022-09-21T12:15:40.983Z,13.60
2022-09-21T12:18:56.850Z,13.80
2022-09-21T12:21:31.455Z,13.90
2022-09-21T12:24:04.363Z,13.90
2022-09-21T12:26:40.420Z,13.80
2022-09-21T12:29:25.281Z,13.50
2022-09-21T12:32:17.208Z,13.30
2022-09-21T12:34:49.737Z,13.40
2022-09-21T12:37:23.779Z,13.60
2022-09-21T12:40:01.379Z,13.80
2022-09-21T12:42:48.451Z,13.90
2022-09-21T12:45:19.804Z,14.10
2022-09-21T12:48:23.506Z,14.10
2022-09-21T12:50:57.413Z,14.20
2022-09-21T12:53:27.318Z,14.40
2022-09-21T12:56:24.318Z,14.70
2022-09-21T12:59:08.811Z,15.10
2022-09-21T13:01:56.286Z,15.30
2022-09-21T13:04:46.086Z,15.30
2022-09-21T13:07:18.754Z,15.50
2022-09-21T13:09:46.890Z,15.70
2022-09-21T13:12:27.345Z,16.10
2022-09-21T13:15:04.981Z,16.00
2022-09-21T13:17:35.895Z,16.00
2022-09-21T13:20:21.480Z,15.80
2022-09-21T13:22:49.283Z,15.60
2022-09-21T13:25:30.041Z,15.20
2022-09-21T13:28:12.148Z,14.90
2022-09-21T13:30:49.346Z,14.60
2022-09-21T13:33:21.174Z,14.20
2022-09-21T13:35:51.132Z,13.70
2022-09-21T13:38:44.309Z,13.50
2022-09-21T13:41:17.785Z,13.20
2022-09-21T13:43:48.401Z,13.00
2022-09-21T13:46:39.570Z,12.90
2022-09-21T13:49:14.026Z,12.70
2022-09-21T13:52:10.561Z,12.60
2022-09-21T13:54:51.016Z,12.50
2022-09-21T13:57:23.802Z,12.50
2022-09-21T14:00:04.646Z,12.50
2022-09-21T14:02:41.785Z,12.60
2022-09-21T14:05:35.658Z,12.70
2022-09-21T14:08:14.738Z,12.70
2022-09-21T14:10:51.220Z,12.80
2022-09-21T14:13:30.180Z,12.90
2022-09-21T14:16:29.139Z,12.90
2022-09-21T14:18:59.115Z,13.10
2022-09-21T14:21:26.189Z,13.20
2022-09-21T14:24:20.264Z,13.50
2022-09-21T14:27:18.913Z,13.80
2022-09-21T14:30:00.949Z,14.20
2022-09-21T14:32:33.666Z,14.50
2022-09-21T14:35:22.509Z,14.60
2022-09-21T14:37:56.347Z,14.60
2022-09-21T14:40:26.046Z,14.60
2022-09-21T14:42:57.570Z,14.60
2022-09-21T14:45:49.617Z,14.40
2022-09-21T14:48:33.037Z,13.90
2022-09-21T14:51:18.401Z,13.30
2022-09-21T14:54:25.517Z,13.00
2022-09-21T14:57:03.911Z,12.80
2022-09-21T15:00:00.534Z,12.60
2022-09-21T15:02:31.414Z,12.50
2022-09-21T15:05:11.429Z,12.60
2022-09-21T15:08:22.051Z,12.60
2022-09-21T15:11:06.377Z,12.60
2022-09-21T15:14:15.434Z,12.50
2022-09-21T15:16:45.964Z,12.40
2022-09-21T15:19:19.178Z,12.40
2022-09-21T15:21:51.602Z,12.20
2022-09-21T15:24:32.134Z,12.10
2022-09-21T15:27:10.331Z,11.90
2022-09-21T15:29:38.238Z,11.90
2022-09-21T15:32:06.975Z,11.80
2022-09-21T15:34:34.045Z,11.70
2022-09-21T15:37:17.447Z,11.60
2022-09-21T15:39:44.407Z,11.50
2022-09-21T15:42:19.692Z,11.50
2022-09-21T15:44:48.794Z,11.30
2022-09-21T15:47:26.173Z,11.20
2022-09-21T15:49:56.895Z,11.10
2022-09-21T15:52:26.606Z,11.10
2022-09-21T15:54:55.394Z,11.10
2022-09-21T15:57:28.826Z,11.20
2022-09-21T15:59:56.468Z,11.80
2022-09-21T16:02:25.497Z,12.90
2022-09-21T16:04:52.962Z,13.70
2022-09-21T16:07:34.640Z,14.30
2022-09-21T16:10:02.983Z,15.20
2022-09-21T16:12:43.756Z,16.20
2022-09-21T16:15:32.016Z,16.30
2022-09-21T16:18:05.563Z,16.00
2022-09-21T16:20:47.959Z,16.70
2022-09-21T16:23:19.089Z,17.50
2022-09-21T16:26:02.978Z,17.60
2022-09-21T16:28:41.932Z,16.60
2022-09-21T16:31:36.195Z,15.40
2022-09-21T16:34:26.801Z,14.70
2022-09-21T16:36:54.961Z,14.80
2022-09-21T16:39:23.045Z,14.80
2022-09-21T16:42:01.287Z,14.80
2022-09-21T16:44:40.056Z,14.50
2022-09-21T16:47:16.043Z,14.10
2022-09-21T16:49:49.226Z,13.50
2022-09-21T16:52:17.011Z,12.10
2022-09-21T16:54:44.573Z,11.10
2022-09-21T16:57:14.668Z,10.40
2022-09-21T16:59:42.114Z,9.70
2022-09-21T17:02:12.382Z,9.20
2022-09-21T17:04:39.407Z,8.80
2022-09-21T17:07:06.697Z,8.60
2022-09-21T17:09:38.603Z,8.30
2022-09-21T17:12:08.536Z,8.00
2022-09-21T17:14:36.456Z,7.90
2022-09-21T17:17:13.624Z,7.70
2022-09-21T17:19:44.472Z,7.50
2022-09-21T17:22:17.648Z,7.40
2022-09-21T17:24:50.757Z,7.30
2022-09-21T17:27:22.902Z,7.10
2022-09-21T17:29:50.566Z,7.00
2022-09-21T17:32:20.685Z,6.90
2022-09-21T17:34:56.390Z,6.70
2022-09-21T17:37:25.157Z,6.60
2022-09-21T17:39:54.993Z,6.50
2022-09-21T17:42:25.476Z,6.40
2022-09-21T17:45:12.689Z,6.30
2022-09-21T17:47:40.965Z,6.10
2022-09-21T17:50:13.941Z,6.00
2022-09-21T17:53:00.869Z,5.90
2022-09-21T17:55:28.237Z,5.90
2022-09-21T18:01:08.371Z,5.70
2022-09-21T18:03:44.026Z,5.60
2022-09-21T18:06:12.075Z,5.60
2022-09-21T18:08:42.324Z,5.50
2022-09-21T18:11:24.894Z,5.40
2022-09-21T18:14:06.371Z,5.30
2022-09-21T18:17:10.715Z,5.30
2022-09-21T18:20:08.423Z,5.20
2022-09-21T18:22:57.449Z,5.20
2022-09-21T18:25:35.808Z,5.20
2022-09-21T18:28:17.346Z,5.10
2022-09-21T18:30:51.366Z,5.10
2022-09-21T18:33:45.194Z,4.90
2022-09-21T18:36:30.077Z,4.90
2022-09-21T18:38:59.704Z,4.70
2022-09-21T18:41:36.289Z,4.60
2022-09-21T18:44:21.608Z,4.60
2022-09-21T18:47:15.934Z,4.50
2022-09-21T18:50:03.317Z,4.50
2022-09-21T18:52:44.720Z,4.40
2022-09-21T18:55:33.078Z,4.40
2022-09-21T18:58:03.738Z,4.40
2022-09-21T19:00:31.819Z,4.30
2022-09-21T19:03:16.569Z,4.20
2022-09-21T19:06:19.212Z,4.20
2022-09-21T19:09:12.482Z,4.10
2022-09-21T19:12:01.345Z,4.10
2022-09-21T19:14:38.348Z,4.10
2022-09-21T19:17:40.558Z,4.00
2022-09-21T19:20:23.826Z,3.90
2022-09-21T19:23:19.864Z,3.90
2022-09-21T19:25:50.675Z,3.80
2022-09-21T19:28:29.716Z,3.90
2022-09-21T19:31:08.350Z,3.80
2022-09-21T19:33:51.636Z,3.70
2022-09-21T19:36:24.153Z,3.80
2022-09-21T19:38:57.206Z,3.80
2022-09-21T19:42:02.511Z,3.80
2022-09-21T19:44:44.704Z,3.60
2022-09-21T19:47:29.387Z,3.60
2022-09-21T19:50:26.392Z,3.60
2022-09-21T19:53:16.676Z,3.60
2022-09-21T19:56:04.123Z,3.60
2022-09-21T19:58:52.874Z,3.50
2022-09-21T20:01:21.610Z,3.50
2022-09-21T20:03:49.455Z,3.60
2022-09-21T20:06:39.927Z,3.50
2022-09-21T20:09:34.236Z,3.50
2022-09-21T20:12:09.245Z,3.40
2022-09-21T20:14:52.100Z,3.40
2022-09-21T20:17:24.843Z,3.40
2022-09-21T20:20:27.038Z,3.30
2022-09-21T20:22:54.956Z,3.30
2022-09-21T20:25:24.936Z,3.30
2022-09-21T20:27:55.375Z,3.30
2022-09-21T20:30:34.370Z,3.20
2022-09-21T20:33:14.421Z,3.20
2022-09-21T20:35:45.038Z,3.10
2022-09-21T20:38:11.906Z,3.10
2022-09-21T20:40:42.707Z,3.10
2022-09-21T20:43:09.985Z,3.00
2022-09-21T20:45:49.610Z,3.00
2022-09-21T20:48:16.614Z,3.00
2022-09-21T20:50:51.199Z,3.00
2022-09-21T20:53:19.626Z,3.00
2022-09-21T20:55:54.492Z,3.00
2022-09-21T20:58:30.331Z,2.90
2022-09-21T21:01:04.545Z,2.80
2022-09-21T21:03:31.357Z,2.80
2022-09-21T21:06:24.073Z,2.80
2022-09-21T21:08:50.847Z,2.70
2022-09-21T21:11:17.881Z,2.70
2022-09-21T21:13:44.730Z,2.70
2022-09-21T21:16:12.511Z,2.70
2022-09-21T21:18:42.825Z,2.60
2022-09-21T21:21:09.726Z,2.60
2022-09-21T21:23:55.697Z,2.60
2022-09-21T21:26:38.172Z,2.50
2022-09-21T21:29:09.969Z,2.60
2022-09-21T21:31:40.236Z,2.60
2022-09-21T21:34:07.147Z,2.60
2022-09-21T21:36:33.946Z,2.50
2022-09-21T21:39:00.951Z,2.50
2022-09-21T21:41:27.817Z,2.40
2022-09-21T21:43:57.214Z,2.40
2022-09-21T21:46:24.105Z,2.30
2022-09-21T21:48:51.259Z,2.20
2022-09-21T21:51:18.480Z,2.20
2022-09-21T21:53:46.350Z,2.20
2022-09-21T21:56:15.243Z,2.20
2022-09-21T21:58:50.271Z,2.20
2022-09-21T22:01:22.819Z,2.20
2022-09-21T22:03:58.290Z,2.20
2022-09-21T22:06:30.498Z,2.10
2022-09-21T22:08:57.912Z,2.10
2022-09-21T22:11:26.233Z,2.10
2022-09-21T22:13:54.510Z,2.10
2022-09-21T22:16:23.902Z,2.10
2022-09-21T22:18:51.897Z,2.00
2022-09-21T22:21:27.524Z,2.00
2022-09-21T22:23:56.778Z,2.00
2022-09-21T22:26:24.443Z,1.90
2022-09-21T22:31:43.600Z,1.90
2022-09-21T22:34:15.328Z,1.90
2022-09-21T22:36:45.818Z,1.80
2022-09-21T22:39:13.662Z,1.80
2022-09-21T22:41:42.260Z,1.70
2022-09-21T22:44:10.241Z,1.70
2022-09-21T22:46:38.082Z,1.70
2022-09-21T22:49:08.053Z,1.70
2022-09-21T22:51:35.299Z,1.60
2022-09-21T22:54:02.417Z,1.60
2022-09-21T22:56:31.683Z,1.60
2022-09-21T22:59:01.595Z,1.60
2022-09-21T23:01:35.315Z,1.60
2022-09-21T23:04:10.882Z,1.60
2022-09-21T23:06:44.314Z,1.50
2022-09-21T23:09:18.480Z,1.50
2022-09-21T23:11:50.734Z,1.50
2022-09-21T23:14:25.174Z,1.40
2022-09-21T23:16:58.362Z,1.40
2022-09-21T23:19:25.197Z,1.50
2022-09-21T23:21:53.261Z,1.50
2022-09-21T23:24:20.299Z,1.50
2022-09-21T23:26:53.704Z,1.40
2022-09-21T23:29:33.708Z,1.40
2022-09-21T23:32:00.853Z,1.40
2022-09-21T23:34:35.361Z,1.40
2022-09-21T23:37:11.405Z,1.40
2022-09-21T23:39:39.010Z,1.30
2022-09-21T23:42:06.882Z,1.40
2022-09-21T23:44:36.577Z,1.40
2022-09-21T23:47:03.702Z,1.30
2022-09-21T23:49:37.759Z,1.30
2022-09-21T23:52:04.554Z,1.30
2022-09-21T23:54:34.094Z,1.20
2022-09-21T23:57:00.916Z,1.20
2022-09-21T23:59:28.002Z,1.10
